sensor_id;sensor_type;location;lat;lon;timestamp;P1;durP1;ratioP1;P2;durP2;ratioP2
33491;SDS011;20010;51.488;7.232;2023-04-25T00:02:16;10.82;;;9.30;;
33491;SDS011;20010;51.488;7.232;2023-04-25T00:04:43;13.95;;;8.60;;
33491;SDS011;20010;51.488;7.232;2023-04-25T00:07:10;17.42;;;10.07;;
33491;SDS011;20010;51.488;7.232;2023-04-25T00:09:36;10.68;;;8.85;;
33491;SDS011;20010;51.488;7.232;2023-04-25T00:12:03;19.10;;;9.73;;
33491;SDS011;20010;51.488;7.232;2023-04-25T00:14:30;14.85;;;9.02;;
33491;SDS011;20010;51.488;7.232;2023-04-25T00:17:00;15.68;;;9.50;;
33491;SDS011;20010;51.488;7.232;2023-04-25T00:19:26;11.70;;;8.43;;
33491;SDS011;20010;51.488;7.232;2023-04-25T00:21:54;14.60;;;9.02;;
33491;SDS011;20010;51.488;7.232;2023-04-25T00:24:21;10.85;;;9.70;;
33491;SDS011;20010;51.488;7.232;2023-04-25T00:26:48;14.65;;;9.38;;
33491;SDS011;20010;51.488;7.232;2023-04-25T00:29:14;11.57;;;8.68;;
33491;SDS011;20010;51.488;7.232;2023-04-25T00:31:41;10.85;;;9.55;;
33491;SDS011;20010;51.488;7.232;2023-04-25T00:34:08;12.70;;;9.73;;
33491;SDS011;20010;51.488;7.232;2023-04-25T00:36:35;10.85;;;9.60;;
33491;SDS011;20010;51.488;7.232;2023-04-25T00:39:02;15.93;;;8.85;;
33491;SDS011;20010;51.488;7.232;2023-04-25T00:41:30;11.75;;;9.15;;
33491;SDS011;20010;51.488;7.232;2023-04-25T00:43:57;12.77;;;9.73;;
33491;SDS011;20010;51.488;7.232;2023-04-25T00:46:24;10.48;;;8.88;;
33491;SDS011;20010;51.488;7.232;2023-04-25T00:48:50;11.63;;;9.20;;
33491;SDS011;20010;51.488;7.232;2023-04-25T00:51:19;12.30;;;9.20;;
33491;SDS011;20010;51.488;7.232;2023-04-25T00:53:47;10.85;;;8.50;;
33491;SDS011;20010;51.488;7.232;2023-04-25T00:56:15;11.85;;;8.50;;
33491;SDS011;20010;51.488;7.232;2023-04-25T00:58:42;10.48;;;8.98;;
33491;SDS011;20010;51.488;7.232;2023-04-25T01:01:10;10.60;;;8.27;;
33491;SDS011;20010;51.488;7.232;2023-04-25T01:03:38;10.95;;;9.52;;
33491;SDS011;20010;51.488;7.232;2023-04-25T01:06:10;10.52;;;9.18;;
33491;SDS011;20010;51.488;7.232;2023-04-25T01:08:37;12.00;;;9.00;;
33491;SDS011;20010;51.488;7.232;2023-04-25T01:11:05;10.40;;;8.57;;
33491;SDS011;20010;51.488;7.232;2023-04-25T01:13:32;10.07;;;9.23;;
33491;SDS011;20010;51.488;7.232;2023-04-25T01:15:59;13.20;;;9.48;;
33491;SDS011;20010;51.488;7.232;2023-04-25T01:18:26;14.32;;;9.25;;
33491;SDS011;20010;51.488;7.232;2023-04-25T01:20:53;12.35;;;9.15;;
33491;SDS011;20010;51.488;7.232;2023-04-25T01:23:21;10.32;;;8.80;;
33491;SDS011;20010;51.488;7.232;2023-04-25T01:25:48;10.45;;;9.25;;
33491;SDS011;20010;51.488;7.232;2023-04-25T01:28:15;10.07;;;8.82;;
33491;SDS011;20010;51.488;7.232;2023-04-25T01:30:43;14.27;;;9.35;;
33491;SDS011;20010;51.488;7.232;2023-04-25T01:33:10;12.23;;;10.63;;
33491;SDS011;20010;51.488;7.232;2023-04-25T01:35:37;14.32;;;10.43;;
33491;SDS011;20010;51.488;7.232;2023-04-25T01:38:04;17.83;;;12.05;;
33491;SDS011;20010;51.488;7.232;2023-04-25T01:40:31;15.20;;;11.00;;
33491;SDS011;20010;51.488;7.232;2023-04-25T01:42:57;15.55;;;10.43;;
33491;SDS011;20010;51.488;7.232;2023-04-25T01:45:24;12.75;;;10.50;;
33491;SDS011;20010;51.488;7.232;2023-04-25T01:47:51;14.77;;;11.93;;
33491;SDS011;20010;51.488;7.232;2023-04-25T01:50:18;13.38;;;10.60;;
33491;SDS011;20010;51.488;7.232;2023-04-25T01:52:44;14.35;;;10.90;;
33491;SDS011;20010;51.488;7.232;2023-04-25T01:55:11;14.48;;;11.65;;
33491;SDS011;20010;51.488;7.232;2023-04-25T01:57:38;13.43;;;11.30;;
33491;SDS011;20010;51.488;7.232;2023-04-25T02:00:05;12.73;;;10.50;;
33491;SDS011;20010;51.488;7.232;2023-04-25T02:02:33;15.10;;;11.25;;
33491;SDS011;20010;51.488;7.232;2023-04-25T02:04:59;15.95;;;11.27;;
33491;SDS011;20010;51.488;7.232;2023-04-25T02:07:26;17.88;;;11.77;;
33491;SDS011;20010;51.488;7.232;2023-04-25T02:09:53;15.73;;;11.68;;
33491;SDS011;20010;51.488;7.232;2023-04-25T02:12:19;16.92;;;11.30;;
33491;SDS011;20010;51.488;7.232;2023-04-25T02:14:46;13.07;;;11.45;;
33491;SDS011;20010;51.488;7.232;2023-04-25T02:17:12;14.43;;;10.85;;
33491;SDS011;20010;51.488;7.232;2023-04-25T02:19:39;12.75;;;10.93;;
33491;SDS011;20010;51.488;7.232;2023-04-25T02:22:06;19.23;;;11.05;;
33491;SDS011;20010;51.488;7.232;2023-04-25T02:24:33;14.48;;;11.32;;
33491;SDS011;20010;51.488;7.232;2023-04-25T02:27:01;11.85;;;10.60;;
33491;SDS011;20010;51.488;7.232;2023-04-25T02:29:27;16.77;;;11.25;;
33491;SDS011;20010;51.488;7.232;2023-04-25T02:31:55;14.88;;;10.30;;
33491;SDS011;20010;51.488;7.232;2023-04-25T02:34:21;15.55;;;10.95;;
33491;SDS011;20010;51.488;7.232;2023-04-25T02:36:48;17.00;;;11.43;;
33491;SDS011;20010;51.488;7.232;2023-04-25T02:39:17;17.98;;;11.30;;
33491;SDS011;20010;51.488;7.232;2023-04-25T02:41:43;15.82;;;11.15;;
33491;SDS011;20010;51.488;7.232;2023-04-25T02:44:10;17.20;;;12.25;;
33491;SDS011;20010;51.488;7.232;2023-04-25T02:46:36;19.30;;;10.50;;
33491;SDS011;20010;51.488;7.232;2023-04-25T02:49:05;13.45;;;9.95;;
33491;SDS011;20010;51.488;7.232;2023-04-25T02:51:32;13.15;;;9.88;;
33491;SDS011;20010;51.488;7.232;2023-04-25T02:53:59;14.35;;;9.80;;
33491;SDS011;20010;51.488;7.232;2023-04-25T02:56:26;12.63;;;9.77;;
33491;SDS011;20010;51.488;7.232;2023-04-25T02:58:53;16.77;;;9.95;;
33491;SDS011;20010;51.488;7.232;2023-04-25T03:01:19;14.07;;;9.95;;
33491;SDS011;20010;51.488;7.232;2023-04-25T03:03:46;19.02;;;11.15;;
33491;SDS011;20010;51.488;7.232;2023-04-25T03:06:13;14.82;;;9.48;;
33491;SDS011;20010;51.488;7.232;2023-04-25T03:08:40;14.43;;;9.57;;
33491;SDS011;20010;51.488;7.232;2023-04-25T03:11:06;17.42;;;11.52;;
33491;SDS011;20010;51.488;7.232;2023-04-25T03:13:33;19.50;;;10.95;;
33491;SDS011;20010;51.488;7.232;2023-04-25T03:16:00;17.95;;;10.90;;
33491;SDS011;20010;51.488;7.232;2023-04-25T03:18:27;13.00;;;9.32;;
33491;SDS011;20010;51.488;7.232;2023-04-25T03:20:53;18.23;;;11.18;;
33491;SDS011;20010;51.488;7.232;2023-04-25T03:23:20;19.05;;;10.90;;
33491;SDS011;20010;51.488;7.232;2023-04-25T03:25:47;19.45;;;11.70;;
33491;SDS011;20010;51.488;7.232;2023-04-25T03:28:14;18.05;;;11.15;;
33491;SDS011;20010;51.488;7.232;2023-04-25T03:30:40;19.65;;;11.27;;
33491;SDS011;20010;51.488;7.232;2023-04-25T03:33:07;15.90;;;10.73;;
33491;SDS011;20010;51.488;7.232;2023-04-25T03:35:34;23.75;;;12.05;;
33491;SDS011;20010;51.488;7.232;2023-04-25T03:38:00;13.82;;;11.05;;
33491;SDS011;20010;51.488;7.232;2023-04-25T03:40:27;20.58;;;12.50;;
33491;SDS011;20010;51.488;7.232;2023-04-25T03:42:53;18.73;;;11.88;;
33491;SDS011;20010;51.488;7.232;2023-04-25T03:45:20;15.07;;;12.30;;
33491;SDS011;20010;51.488;7.232;2023-04-25T03:47:46;18.92;;;13.38;;
33491;SDS011;20010;51.488;7.232;2023-04-25T03:50:13;19.67;;;11.82;;
33491;SDS011;20010;51.488;7.232;2023-04-25T03:52:40;14.95;;;11.95;;
33491;SDS011;20010;51.488;7.232;2023-04-25T03:55:06;20.75;;;12.45;;
33491;SDS011;20010;51.488;7.232;2023-04-25T03:57:33;18.50;;;11.88;;
33491;SDS011;20010;51.488;7.232;2023-04-25T04:00:00;20.17;;;13.57;;
33491;SDS011;20010;51.488;7.232;2023-04-25T04:02:26;19.10;;;12.02;;
33491;SDS011;20010;51.488;7.232;2023-04-25T04:04:53;20.23;;;12.07;;
33491;SDS011;20010;51.488;7.232;2023-04-25T04:07:20;16.77;;;10.77;;
33491;SDS011;20010;51.488;7.232;2023-04-25T04:09:46;17.40;;;10.50;;
33491;SDS011;20010;51.488;7.232;2023-04-25T04:12:13;11.95;;;8.20;;
33491;SDS011;20010;51.488;7.232;2023-04-25T04:14:40;10.40;;;6.72;;
33491;SDS011;20010;51.488;7.232;2023-04-25T04:17:08;16.15;;;6.85;;
33491;SDS011;20010;51.488;7.232;2023-04-25T04:19:34;9.00;;;6.10;;
33491;SDS011;20010;51.488;7.232;2023-04-25T04:22:01;18.17;;;7.97;;
33491;SDS011;20010;51.488;7.232;2023-04-25T04:24:27;11.38;;;5.93;;
33491;SDS011;20010;51.488;7.232;2023-04-25T04:26:54;7.03;;;5.93;;
33491;SDS011;20010;51.488;7.232;2023-04-25T04:29:21;11.30;;;6.57;;
33491;SDS011;20010;51.488;7.232;2023-04-25T04:31:48;12.27;;;5.60;;
33491;SDS011;20010;51.488;7.232;2023-04-25T04:34:19;11.48;;;6.68;;
33491;SDS011;20010;51.488;7.232;2023-04-25T04:36:45;11.80;;;7.00;;
33491;SDS011;20010;51.488;7.232;2023-04-25T04:39:13;8.73;;;6.50;;
33491;SDS011;20010;51.488;7.232;2023-04-25T04:41:40;13.10;;;7.28;;
33491;SDS011;20010;51.488;7.232;2023-04-25T04:44:06;10.60;;;6.70;;
33491;SDS011;20010;51.488;7.232;2023-04-25T04:46:35;10.25;;;6.47;;
33491;SDS011;20010;51.488;7.232;2023-04-25T04:49:09;11.20;;;7.15;;
33491;SDS011;20010;51.488;7.232;2023-04-25T04:51:36;10.20;;;6.85;;
33491;SDS011;20010;51.488;7.232;2023-04-25T04:54:03;12.57;;;6.55;;
33491;SDS011;20010;51.488;7.232;2023-04-25T04:56:30;13.40;;;7.13;;
33491;SDS011;20010;51.488;7.232;2023-04-25T04:58:57;9.90;;;7.75;;
33491;SDS011;20010;51.488;7.232;2023-04-25T05:01:25;23.88;;;9.43;;
33491;SDS011;20010;51.488;7.232;2023-04-25T05:03:52;9.82;;;7.70;;
33491;SDS011;20010;51.488;7.232;2023-04-25T05:06:20;15.88;;;8.52;;
33491;SDS011;20010;51.488;7.232;2023-04-25T05:08:47;17.00;;;8.75;;
33491;SDS011;20010;51.488;7.232;2023-04-25T05:11:14;11.50;;;7.47;;
33491;SDS011;20010;51.488;7.232;2023-04-25T05:13:40;10.05;;;7.85;;
33491;SDS011;20010;51.488;7.232;2023-04-25T05:16:08;16.33;;;8.50;;
33491;SDS011;20010;51.488;7.232;2023-04-25T05:18:35;12.55;;;8.27;;
33491;SDS011;20010;51.488;7.232;2023-04-25T05:21:02;16.10;;;8.93;;
33491;SDS011;20010;51.488;7.232;2023-04-25T05:23:30;11.52;;;7.35;;
33491;SDS011;20010;51.488;7.232;2023-04-25T05:25:58;11.45;;;7.68;;
33491;SDS011;20010;51.488;7.232;2023-04-25T05:28:25;11.05;;;8.20;;
33491;SDS011;20010;51.488;7.232;2023-04-25T05:30:52;15.20;;;10.30;;
33491;SDS011;20010;51.488;7.232;2023-04-25T05:33:18;12.93;;;9.13;;
33491;SDS011;20010;51.488;7.232;2023-04-25T05:35:45;22.63;;;9.82;;
33491;SDS011;20010;51.488;7.232;2023-04-25T05:38:12;18.52;;;9.50;;
33491;SDS011;20010;51.488;7.232;2023-04-25T05:40:39;15.88;;;11.10;;
33491;SDS011;20010;51.488;7.232;2023-04-25T05:43:05;23.73;;;13.10;;
33491;SDS011;20010;51.488;7.232;2023-04-25T05:45:32;18.80;;;10.73;;
33491;SDS011;20010;51.488;7.232;2023-04-25T05:47:59;20.75;;;11.98;;
33491;SDS011;20010;51.488;7.232;2023-04-25T05:50:25;18.27;;;11.30;;
33491;SDS011;20010;51.488;7.232;2023-04-25T05:52:52;39.00;;;13.48;;
33491;SDS011;20010;51.488;7.232;2023-04-25T05:55:19;15.25;;;11.98;;
33491;SDS011;20010;51.488;7.232;2023-04-25T05:57:45;18.83;;;10.73;;
33491;SDS011;20010;51.488;7.232;2023-04-25T06:00:13;17.48;;;11.32;;
33491;SDS011;20010;51.488;7.232;2023-04-25T06:02:42;22.52;;;11.63;;
33491;SDS011;20010;51.488;7.232;2023-04-25T06:05:09;21.02;;;11.85;;
33491;SDS011;20010;51.488;7.232;2023-04-25T06:07:36;18.23;;;10.20;;
33491;SDS011;20010;51.488;7.232;2023-04-25T06:10:03;13.57;;;10.77;;
33491;SDS011;20010;51.488;7.232;2023-04-25T06:12:32;19.92;;;10.57;;
33491;SDS011;20010;51.488;7.232;2023-04-25T06:14:59;22.75;;;11.40;;
33491;SDS011;20010;51.488;7.232;2023-04-25T06:17:26;22.77;;;11.77;;
33491;SDS011;20010;51.488;7.232;2023-04-25T06:19:53;19.05;;;11.15;;
33491;SDS011;20010;51.488;7.232;2023-04-25T06:22:19;21.02;;;11.30;;
33491;SDS011;20010;51.488;7.232;2023-04-25T06:24:46;19.27;;;12.05;;
33491;SDS011;20010;51.488;7.232;2023-04-25T06:27:13;22.27;;;10.70;;
33491;SDS011;20010;51.488;7.232;2023-04-25T06:29:42;18.77;;;10.68;;
33491;SDS011;20010;51.488;7.232;2023-04-25T06:32:09;18.33;;;10.35;;
33491;SDS011;20010;51.488;7.232;2023-04-25T06:34:35;14.15;;;11.10;;
33491;SDS011;20010;51.488;7.232;2023-04-25T06:37:02;16.85;;;10.85;;
33491;SDS011;20010;51.488;7.232;2023-04-25T06:39:28;17.42;;;10.63;;
33491;SDS011;20010;51.488;7.232;2023-04-25T06:41:55;17.58;;;10.75;;
33491;SDS011;20010;51.488;7.232;2023-04-25T06:44:22;19.48;;;10.68;;
33491;SDS011;20010;51.488;7.232;2023-04-25T06:46:50;21.92;;;11.30;;
33491;SDS011;20010;51.488;7.232;2023-04-25T06:49:17;19.52;;;10.02;;
33491;SDS011;20010;51.488;7.232;2023-04-25T06:51:43;19.85;;;10.27;;
33491;SDS011;20010;51.488;7.232;2023-04-25T06:54:10;17.15;;;10.88;;
33491;SDS011;20010;51.488;7.232;2023-04-25T06:56:37;19.85;;;9.27;;
33491;SDS011;20010;51.488;7.232;2023-04-25T06:59:03;14.88;;;9.18;;
33491;SDS011;20010;51.488;7.232;2023-04-25T07:01:30;16.88;;;9.13;;
33491;SDS011;20010;51.488;7.232;2023-04-25T07:03:56;16.30;;;8.85;;
33491;SDS011;20010;51.488;7.232;2023-04-25T07:06:24;13.57;;;8.57;;
33491;SDS011;20010;51.488;7.232;2023-04-25T07:08:52;14.32;;;9.95;;
33491;SDS011;20010;51.488;7.232;2023-04-25T07:11:18;17.10;;;7.43;;
33491;SDS011;20010;51.488;7.232;2023-04-25T07:13:45;13.43;;;8.05;;
33491;SDS011;20010;51.488;7.232;2023-04-25T07:16:12;12.73;;;8.45;;
33491;SDS011;20010;51.488;7.232;2023-04-25T07:18:38;14.63;;;8.25;;
33491;SDS011;20010;51.488;7.232;2023-04-25T07:21:05;17.50;;;9.43;;
33491;SDS011;20010;51.488;7.232;2023-04-25T07:23:32;13.98;;;9.48;;
33491;SDS011;20010;51.488;7.232;2023-04-25T07:25:58;12.93;;;9.10;;
33491;SDS011;20010;51.488;7.232;2023-04-25T07:28:25;14.23;;;7.57;;
33491;SDS011;20010;51.488;7.232;2023-04-25T07:30:51;15.48;;;7.85;;
33491;SDS011;20010;51.488;7.232;2023-04-25T07:33:18;11.43;;;9.00;;
33491;SDS011;20010;51.488;7.232;2023-04-25T07:35:46;15.23;;;8.07;;
33491;SDS011;20010;51.488;7.232;2023-04-25T07:38:13;14.88;;;9.13;;
33491;SDS011;20010;51.488;7.232;2023-04-25T07:40:40;20.58;;;8.57;;
33491;SDS011;20010;51.488;7.232;2023-04-25T07:43:06;11.38;;;7.35;;
33491;SDS011;20010;51.488;7.232;2023-04-25T07:45:34;14.40;;;8.50;;
33491;SDS011;20010;51.488;7.232;2023-04-25T07:48:01;13.23;;;7.85;;
33491;SDS011;20010;51.488;7.232;2023-04-25T07:50:27;14.05;;;7.63;;
33491;SDS011;20010;51.488;7.232;2023-04-25T07:52:54;15.32;;;7.57;;
33491;SDS011;20010;51.488;7.232;2023-04-25T07:55:20;17.30;;;8.55;;
33491;SDS011;20010;51.488;7.232;2023-04-25T07:57:47;12.77;;;7.72;;
33491;SDS011;20010;51.488;7.232;2023-04-25T08:00:14;10.55;;;6.22;;
33491;SDS011;20010;51.488;7.232;2023-04-25T08:02:41;11.90;;;7.38;;
33491;SDS011;20010;51.488;7.232;2023-04-25T08:05:08;9.68;;;6.28;;
33491;SDS011;20010;51.488;7.232;2023-04-25T08:07:38;13.25;;;5.93;;
33491;SDS011;20010;51.488;7.232;2023-04-25T08:10:05;12.82;;;6.10;;
33491;SDS011;20010;51.488;7.232;2023-04-25T08:12:33;14.52;;;6.10;;
33491;SDS011;20010;51.488;7.232;2023-04-25T08:15:00;9.38;;;6.53;;
33491;SDS011;20010;51.488;7.232;2023-04-25T08:17:26;10.95;;;5.45;;
33491;SDS011;20010;51.488;7.232;2023-04-25T08:19:53;10.75;;;6.25;;
33491;SDS011;20010;51.488;7.232;2023-04-25T08:22:20;9.57;;;6.70;;
33491;SDS011;20010;51.488;7.232;2023-04-25T08:24:46;8.23;;;6.13;;
33491;SDS011;20010;51.488;7.232;2023-04-25T08:27:13;9.70;;;5.70;;
33491;SDS011;20010;51.488;7.232;2023-04-25T08:29:41;13.93;;;6.40;;
33491;SDS011;20010;51.488;7.232;2023-04-25T08:32:08;13.35;;;6.88;;
33491;SDS011;20010;51.488;7.232;2023-04-25T08:34:34;11.02;;;6.72;;
33491;SDS011;20010;51.488;7.232;2023-04-25T08:37:03;11.35;;;6.43;;
33491;SDS011;20010;51.488;7.232;2023-04-25T08:39:30;7.90;;;6.50;;
33491;SDS011;20010;51.488;7.232;2023-04-25T08:41:57;7.28;;;5.88;;
33491;SDS011;20010;51.488;7.232;2023-04-25T08:44:23;8.63;;;6.70;;
33491;SDS011;20010;51.488;7.232;2023-04-25T08:46:50;7.50;;;6.03;;
33491;SDS011;20010;51.488;7.232;2023-04-25T08:49:18;12.90;;;6.28;;
33491;SDS011;20010;51.488;7.232;2023-04-25T08:51:45;7.45;;;6.70;;
33491;SDS011;20010;51.488;7.232;2023-04-25T08:54:14;7.90;;;6.53;;
33491;SDS011;20010;51.488;7.232;2023-04-25T08:57:00;9.65;;;6.53;;
33491;SDS011;20010;51.488;7.232;2023-04-25T08:59:28;11.90;;;6.95;;
33491;SDS011;20010;51.488;7.232;2023-04-25T09:01:56;6.75;;;6.15;;
33491;SDS011;20010;51.488;7.232;2023-04-25T09:04:23;10.73;;;6.80;;
33491;SDS011;20010;51.488;7.232;2023-04-25T09:06:49;9.98;;;6.80;;
33491;SDS011;20010;51.488;7.232;2023-04-25T09:09:16;9.57;;;7.00;;
33491;SDS011;20010;51.488;7.232;2023-04-25T09:11:43;7.68;;;6.60;;
33491;SDS011;20010;51.488;7.232;2023-04-25T09:16:56;11.35;;;7.15;;
33491;SDS011;20010;51.488;7.232;2023-04-25T09:19:24;10.32;;;7.85;;
33491;SDS011;20010;51.488;7.232;2023-04-25T09:22:02;10.90;;;7.28;;
33491;SDS011;20010;51.488;7.232;2023-04-25T09:24:30;8.60;;;7.13;;
33491;SDS011;20010;51.488;7.232;2023-04-25T09:27:05;10.10;;;6.65;;
33491;SDS011;20010;51.488;7.232;2023-04-25T09:29:33;8.45;;;6.13;;
33491;SDS011;20010;51.488;7.232;2023-04-25T09:34:42;9.55;;;6.55;;
33491;SDS011;20010;51.488;7.232;2023-04-25T09:37:10;8.07;;;6.35;;
33491;SDS011;20010;51.488;7.232;2023-04-25T09:39:38;11.10;;;6.60;;
33491;SDS011;20010;51.488;7.232;2023-04-25T09:42:05;7.80;;;7.00;;
33491;SDS011;20010;51.488;7.232;2023-04-25T09:44:32;6.53;;;5.93;;
33491;SDS011;20010;51.488;7.232;2023-04-25T09:46:58;8.02;;;6.20;;
33491;SDS011;20010;51.488;7.232;2023-04-25T09:49:25;11.57;;;5.90;;
33491;SDS011;20010;51.488;7.232;2023-04-25T09:51:56;7.88;;;5.95;;
33491;SDS011;20010;51.488;7.232;2023-04-25T09:54:26;6.80;;;5.72;;
33491;SDS011;20010;51.488;7.232;2023-04-25T09:56:53;7.93;;;5.70;;
33491;SDS011;20010;51.488;7.232;2023-04-25T09:59:21;5.40;;;5.00;;
33491;SDS011;20010;51.488;7.232;2023-04-25T10:01:51;6.18;;;5.78;;
33491;SDS011;20010;51.488;7.232;2023-04-25T10:04:19;6.43;;;5.93;;
33491;SDS011;20010;51.488;7.232;2023-04-25T10:06:49;6.75;;;6.15;;
33491;SDS011;20010;51.488;7.232;2023-04-25T10:09:21;8.43;;;7.53;;
33491;SDS011;20010;51.488;7.232;2023-04-25T10:11:52;7.25;;;6.55;;
33491;SDS011;20010;51.488;7.232;2023-04-25T10:14:19;8.73;;;6.90;;
33491;SDS011;20010;51.488;7.232;2023-04-25T10:16:46;7.72;;;6.60;;
33491;SDS011;20010;51.488;7.232;2023-04-25T10:19:13;8.05;;;7.43;;
33491;SDS011;20010;51.488;7.232;2023-04-25T10:21:48;7.30;;;6.63;;
33491;SDS011;20010;51.488;7.232;2023-04-25T10:24:17;7.15;;;6.63;;
33491;SDS011;20010;51.488;7.232;2023-04-25T10:26:46;9.15;;;6.70;;
33491;SDS011;20010;51.488;7.232;2023-04-25T10:29:14;6.80;;;6.22;;
33491;SDS011;20010;51.488;7.232;2023-04-25T10:31:47;7.15;;;6.55;;
33491;SDS011;20010;51.488;7.232;2023-04-25T10:34:15;9.63;;;6.30;;
33491;SDS011;20010;51.488;7.232;2023-04-25T10:36:43;7.28;;;6.07;;
33491;SDS011;20010;51.488;7.232;2023-04-25T10:39:21;7.97;;;7.18;;
33491;SDS011;20010;51.488;7.232;2023-04-25T10:41:57;7.57;;;6.82;;
33491;SDS011;20010;51.488;7.232;2023-04-25T10:44:28;6.60;;;6.10;;
33491;SDS011;20010;51.488;7.232;2023-04-25T10:46:56;6.25;;;5.82;;
33491;SDS011;20010;51.488;7.232;2023-04-25T10:54:53;7.20;;;6.30;;
33491;SDS011;20010;51.488;7.232;2023-04-25T10:57:43;7.22;;;6.60;;
33491;SDS011;20010;51.488;7.232;2023-04-25T11:00:15;7.47;;;6.88;;
33491;SDS011;20010;51.488;7.232;2023-04-25T11:02:43;8.67;;;7.60;;
33491;SDS011;20010;51.488;7.232;2023-04-25T11:05:22;7.22;;;6.63;;
33491;SDS011;20010;51.488;7.232;2023-04-25T11:07:52;7.78;;;6.78;;
33491;SDS011;20010;51.488;7.232;2023-04-25T11:13:02;7.25;;;6.65;;
33491;SDS011;20010;51.488;7.232;2023-04-25T11:15:28;7.97;;;6.88;;
33491;SDS011;20010;51.488;7.232;2023-04-25T11:17:55;7.40;;;6.68;;
33491;SDS011;20010;51.488;7.232;2023-04-25T11:20:24;6.72;;;6.13;;
33491;SDS011;20010;51.488;7.232;2023-04-25T11:22:52;6.95;;;6.30;;
33491;SDS011;20010;51.488;7.232;2023-04-25T11:25:19;7.03;;;6.53;;
33491;SDS011;20010;51.488;7.232;2023-04-25T11:27:52;9.93;;;7.00;;
33491;SDS011;20010;51.488;7.232;2023-04-25T11:30:24;9.98;;;7.00;;
33491;SDS011;20010;51.488;7.232;2023-04-25T11:32:52;6.70;;;6.20;;
33491;SDS011;20010;51.488;7.232;2023-04-25T11:35:19;8.05;;;6.43;;
33491;SDS011;20010;51.488;7.232;2023-04-25T11:37:46;7.80;;;6.72;;
33491;SDS011;20010;51.488;7.232;2023-04-25T11:40:14;6.75;;;6.20;;
33491;SDS011;20010;51.488;7.232;2023-04-25T11:42:44;7.55;;;6.68;;
33491;SDS011;20010;51.488;7.232;2023-04-25T11:45:12;7.57;;;6.50;;
33491;SDS011;20010;51.488;7.232;2023-04-25T11:47:41;7.90;;;6.53;;
33491;SDS011;20010;51.488;7.232;2023-04-25T11:50:08;6.68;;;6.07;;
33491;SDS011;20010;51.488;7.232;2023-04-25T11:55:10;6.68;;;6.00;;
33491;SDS011;20010;51.488;7.232;2023-04-25T11:57:47;6.20;;;5.80;;
33491;SDS011;20010;51.488;7.232;2023-04-25T12:00:19;6.15;;;5.70;;
33491;SDS011;20010;51.488;7.232;2023-04-25T12:02:48;6.30;;;6.00;;
33491;SDS011;20010;51.488;7.232;2023-04-25T12:05:18;6.22;;;5.80;;
33491;SDS011;20010;51.488;7.232;2023-04-25T12:07:58;6.50;;;6.10;;
33491;SDS011;20010;51.488;7.232;2023-04-25T12:10:36;7.15;;;6.57;;
33491;SDS011;20010;51.488;7.232;2023-04-25T12:13:17;7.32;;;6.72;;
33491;SDS011;20010;51.488;7.232;2023-04-25T12:15:47;7.30;;;6.80;;
33491;SDS011;20010;51.488;7.232;2023-04-25T12:18:18;7.22;;;6.60;;
33491;SDS011;20010;51.488;7.232;2023-04-25T12:20:45;7.10;;;6.50;;
33491;SDS011;20010;51.488;7.232;2023-04-25T12:23:12;6.43;;;6.13;;
33491;SDS011;20010;51.488;7.232;2023-04-25T12:25:42;7.22;;;6.78;;
33491;SDS011;20010;51.488;7.232;2023-04-25T12:33:24;7.80;;;7.07;;
33491;SDS011;20010;51.488;7.232;2023-04-25T12:35:52;7.13;;;6.50;;
33491;SDS011;20010;51.488;7.232;2023-04-25T12:40:49;7.32;;;6.78;;
33491;SDS011;20010;51.488;7.232;2023-04-25T12:43:16;6.35;;;5.95;;
33491;SDS011;20010;51.488;7.232;2023-04-25T12:45:43;6.82;;;6.32;;
33491;SDS011;20010;51.488;7.232;2023-04-25T12:48:20;6.40;;;5.90;;
33491;SDS011;20010;51.488;7.232;2023-04-25T12:50:47;6.50;;;6.10;;
33491;SDS011;20010;51.488;7.232;2023-04-25T12:53:15;7.55;;;6.63;;
33491;SDS011;20010;51.488;7.232;2023-04-25T12:55:43;6.65;;;6.30;;
33491;SDS011;20010;51.488;7.232;2023-04-25T12:58:12;7.47;;;6.78;;
33491;SDS011;20010;51.488;7.232;2023-04-25T13:00:42;7.03;;;6.35;;
33491;SDS011;20010;51.488;7.232;2023-04-25T13:03:09;8.00;;;6.57;;
33491;SDS011;20010;51.488;7.232;2023-04-25T13:05:37;6.95;;;6.50;;
33491;SDS011;20010;51.488;7.232;2023-04-25T13:08:04;7.50;;;6.50;;
33491;SDS011;20010;51.488;7.232;2023-04-25T13:10:31;7.30;;;6.75;;
33491;SDS011;20010;51.488;7.232;2023-04-25T13:13:00;8.20;;;7.45;;
33491;SDS011;20010;51.488;7.232;2023-04-25T13:15:27;7.25;;;6.53;;
33491;SDS011;20010;51.488;7.232;2023-04-25T13:17:54;7.50;;;6.80;;
33491;SDS011;20010;51.488;7.232;2023-04-25T13:20:22;6.90;;;6.43;;
33491;SDS011;20010;51.488;7.232;2023-04-25T13:22:48;6.95;;;6.28;;
33491;SDS011;20010;51.488;7.232;2023-04-25T13:25:15;6.07;;;5.78;;
33491;SDS011;20010;51.488;7.232;2023-04-25T13:27:42;6.72;;;6.13;;
33491;SDS011;20010;51.488;7.232;2023-04-25T13:30:10;6.47;;;6.18;;
33491;SDS011;20010;51.488;7.232;2023-04-25T13:32:39;7.43;;;6.93;;
33491;SDS011;20010;51.488;7.232;2023-04-25T13:35:07;7.95;;;7.15;;
33491;SDS011;20010;51.488;7.232;2023-04-25T13:37:36;7.10;;;6.60;;
33491;SDS011;20010;51.488;7.232;2023-04-25T13:40:04;7.38;;;6.80;;
33491;SDS011;20010;51.488;7.232;2023-04-25T13:42:32;8.43;;;7.72;;
33491;SDS011;20010;51.488;7.232;2023-04-25T13:44:59;7.45;;;6.88;;
33491;SDS011;20010;51.488;7.232;2023-04-25T13:47:26;6.90;;;6.50;;
33491;SDS011;20010;51.488;7.232;2023-04-25T13:49:53;7.70;;;7.00;;
33491;SDS011;20010;51.488;7.232;2023-04-25T13:52:20;7.32;;;6.72;;
33491;SDS011;20010;51.488;7.232;2023-04-25T13:54:47;7.20;;;6.53;;
33491;SDS011;20010;51.488;7.232;2023-04-25T13:57:13;12.88;;;7.38;;
33491;SDS011;20010;51.488;7.232;2023-04-25T13:59:40;8.75;;;7.85;;
33491;SDS011;20010;51.488;7.232;2023-04-25T14:02:07;7.18;;;6.60;;
33491;SDS011;20010;51.488;7.232;2023-04-25T14:04:33;7.32;;;6.72;;
33491;SDS011;20010;51.488;7.232;2023-04-25T14:07:00;8.05;;;6.40;;
33491;SDS011;20010;51.488;7.232;2023-04-25T14:09:28;7.38;;;6.82;;
33491;SDS011;20010;51.488;7.232;2023-04-25T14:11:55;6.88;;;6.28;;
33491;SDS011;20010;51.488;7.232;2023-04-25T14:14:22;7.10;;;6.60;;
33491;SDS011;20010;51.488;7.232;2023-04-25T14:16:49;7.15;;;6.50;;
33491;SDS011;20010;51.488;7.232;2023-04-25T14:19:17;7.13;;;6.53;;
33491;SDS011;20010;51.488;7.232;2023-04-25T14:21:47;6.70;;;6.30;;
33491;SDS011;20010;51.488;7.232;2023-04-25T14:24:13;6.90;;;6.47;;
33491;SDS011;20010;51.488;7.232;2023-04-25T14:26:42;7.28;;;6.78;;
33491;SDS011;20010;51.488;7.232;2023-04-25T14:29:09;7.90;;;7.30;;
33491;SDS011;20010;51.488;7.232;2023-04-25T14:31:38;7.00;;;6.40;;
33491;SDS011;20010;51.488;7.232;2023-04-25T14:34:06;7.20;;;6.80;;
33491;SDS011;20010;51.488;7.232;2023-04-25T14:36:35;7.20;;;6.80;;
33491;SDS011;20010;51.488;7.232;2023-04-25T14:39:02;7.05;;;6.55;;
33491;SDS011;20010;51.488;7.232;2023-04-25T14:41:29;10.23;;;8.93;;
33491;SDS011;20010;51.488;7.232;2023-04-25T14:43:56;7.20;;;6.70;;
33491;SDS011;20010;51.488;7.232;2023-04-25T14:46:34;6.90;;;6.50;;
33491;SDS011;20010;51.488;7.232;2023-04-25T14:49:01;7.43;;;6.82;;
33491;SDS011;20010;51.488;7.232;2023-04-25T14:51:29;7.63;;;7.15;;
33491;SDS011;20010;51.488;7.232;2023-04-25T14:53:57;7.20;;;6.72;;
33491;SDS011;20010;51.488;7.232;2023-04-25T14:56:24;7.45;;;7.05;;
33491;SDS011;20010;51.488;7.232;2023-04-25T14:58:50;6.97;;;6.60;;
33491;SDS011;20010;51.488;7.232;2023-04-25T15:01:17;6.63;;;6.22;;
33491;SDS011;20010;51.488;7.232;2023-04-25T15:03:44;7.18;;;6.57;;